sensor_id;sensor_type;location;lat;lon;timestamp;pressure;altitude;pressure_sealevel;temperature;humidity
75936;BME280;64614;32.062;34.834;2023-02-25T00:01:14;101239.66;;;23.05;46.45
75936;BME280;64614;32.062;34.834;2023-02-25T00:03:42;101239.16;;;23.03;46.39
75936;BME280;64614;32.062;34.834;2023-02-25T00:06:10;101232.06;;;23.02;46.17
75936;BME280;64614;32.062;34.834;2023-02-25T00:08:38;101228.81;;;23.00;46.22
75936;BME280;64614;32.062;34.834;2023-02-25T00:11:05;101228.81;;;23.00;46.42
75936;BME280;64614;32.062;34.834;2023-02-25T00:16:22;101232.97;;;22.97;46.29
75936;BME280;64614;32.062;34.834;2023-02-25T00:18:53;101233.28;;;22.96;46.29
75936;BME280;64614;32.062;34.834;2023-02-25T00:21:20;101234.38;;;22.95;46.42
75936;BME280;64614;32.062;34.834;2023-02-25T00:23:50;101235.50;;;22.94;46.35
75936;BME280;64614;32.062;34.834;2023-02-25T00:26:18;101229.19;;;22.93;46.12
75936;BME280;64614;32.062;34.834;2023-02-25T00:28:44;101221.28;;;22.92;46.44
75936;BME280;64614;32.062;34.834;2023-02-25T00:31:18;101238.03;;;22.90;46.16
75936;BME280;64614;32.062;34.834;2023-02-25T00:33:44;101234.44;;;22.90;46.25
75936;BME280;64614;32.062;34.834;2023-02-25T00:36:18;101227.34;;;22.89;46.73
75936;BME280;64614;32.062;34.834;2023-02-25T00:38:48;101224.13;;;22.87;46.18
75936;BME280;64614;32.062;34.834;2023-02-25T00:41:16;101220.84;;;22.84;46.19
75936;BME280;64614;32.062;34.834;2023-02-25T00:43:49;101226.34;;;22.84;46.45
75936;BME280;64614;32.062;34.834;2023-02-25T00:46:16;101226.03;;;22.86;46.85
75936;BME280;64614;32.062;34.834;2023-02-25T00:48:43;101229.88;;;22.85;46.33
75936;BME280;64614;32.062;34.834;2023-02-25T00:51:14;101233.44;;;22.85;46.36
75936;BME280;64614;32.062;34.834;2023-02-25T00:53:40;101227.97;;;22.85;46.42
75936;BME280;64614;32.062;34.834;2023-02-25T00:56:07;101229.06;;;22.84;46.95
75936;BME280;64614;32.062;34.834;2023-02-25T00:58:37;101227.44;;;22.83;46.97
75936;BME280;64614;32.062;34.834;2023-02-25T01:01:26;101234.03;;;22.82;46.55
75936;BME280;64614;32.062;34.834;2023-02-25T01:03:53;101228.56;;;22.82;46.92
75936;BME280;64614;32.062;34.834;2023-02-25T01:06:23;101232.41;;;22.81;46.85
75936;BME280;64614;32.062;34.834;2023-02-25T01:08:49;101226.94;;;22.81;46.54
75936;BME280;64614;32.062;34.834;2023-02-25T01:11:18;101230.78;;;22.80;46.84
75936;BME280;64614;32.062;34.834;2023-02-25T01:13:55;101223.66;;;22.79;47.05
75936;BME280;64614;32.062;34.834;2023-02-25T01:16:23;101236.25;;;22.80;46.96
75936;BME280;64614;32.062;34.834;2023-02-25T01:18:57;101225.91;;;22.77;47.05
75936;BME280;64614;32.062;34.834;2023-02-25T01:21:29;101226.72;;;22.78;47.05
75936;BME280;64614;32.062;34.834;2023-02-25T01:23:59;101233.28;;;22.77;46.93
75936;BME280;64614;32.062;34.834;2023-02-25T01:26:28;101238.78;;;22.77;46.67
75936;BME280;64614;32.062;34.834;2023-02-25T01:28:54;101237.97;;;22.76;46.89
75936;BME280;64614;32.062;34.834;2023-02-25T01:31:23;101237.16;;;22.76;47.21
75936;BME280;64614;32.062;34.834;2023-02-25T01:34:00;101237.16;;;22.76;47.39
75936;BME280;64614;32.062;34.834;2023-02-25T01:36:28;101233.59;;;22.75;46.92
75936;BME280;64614;32.062;34.834;2023-02-25T01:38:55;101239.09;;;22.75;47.43
75936;BME280;64614;32.062;34.834;2023-02-25T01:41:22;101233.59;;;22.75;46.95
75936;BME280;64614;32.062;34.834;2023-02-25T01:44:10;101233.91;;;22.74;47.32
75936;BME280;64614;32.062;34.834;2023-02-25T01:46:38;101237.75;;;22.73;47.24
75936;BME280;64614;32.062;34.834;2023-02-25T01:49:10;101235.81;;;22.73;47.16
75936;BME280;64614;32.062;34.834;2023-02-25T01:51:37;101241.28;;;22.73;47.54
75936;BME280;64614;32.062;34.834;2023-02-25T01:54:03;101240.50;;;22.73;47.36
75936;BME280;64614;32.062;34.834;2023-02-25T01:56:32;101239.66;;;22.72;47.23
75936;BME280;64614;32.062;34.834;2023-02-25T01:59:01;101247.88;;;22.72;47.32
75936;BME280;64614;32.062;34.834;2023-02-25T02:01:30;101249.00;;;22.71;47.70
75936;BME280;64614;32.062;34.834;2023-02-25T02:03:57;101237.25;;;22.71;47.31
75936;BME280;64614;32.062;34.834;2023-02-25T02:06:30;101245.75;;;22.69;47.75
75936;BME280;64614;32.062;34.834;2023-02-25T02:11:23;101231.53;;;22.67;47.63
75936;BME280;64614;32.062;34.834;2023-02-25T02:13:52;101240.06;;;22.65;47.46
75936;BME280;64614;32.062;34.834;2023-02-25T02:18:49;101241.97;;;22.65;47.58
75936;BME280;64614;32.062;34.834;2023-02-25T02:27:08;101241.44;;;22.63;47.50
75936;BME280;64614;32.062;34.834;2023-02-25T02:51:55;101250.88;;;22.57;48.14
75936;BME280;64614;32.062;34.834;2023-02-25T02:54:26;101263.75;;;22.56;48.09
75936;BME280;64614;32.062;34.834;2023-02-25T02:56:54;101256.66;;;22.55;47.98
75936;BME280;64614;32.062;34.834;2023-02-25T02:59:37;101253.91;;;22.55;47.87
75936;BME280;64614;32.062;34.834;2023-02-25T03:02:15;101251.44;;;22.53;48.47
75936;BME280;64614;32.062;34.834;2023-02-25T03:04:46;101259.16;;;22.51;48.41
75936;BME280;64614;32.062;34.834;2023-02-25T03:07:14;101258.88;;;22.53;48.44
75936;BME280;64614;32.062;34.834;2023-02-25T03:09:49;101257.22;;;22.52;48.08
75936;BME280;64614;32.062;34.834;2023-02-25T03:12:16;101254.78;;;22.50;48.61
75936;BME280;64614;32.062;34.834;2023-02-25T03:14:42;101270.13;;;22.51;48.11
75936;BME280;64614;32.062;34.834;2023-02-25T03:17:15;101265.75;;;22.50;48.67
75936;BME280;64614;32.062;34.834;2023-02-25T03:20:48;101261.38;;;22.49;48.12
75936;BME280;64614;32.062;34.834;2023-02-25T03:22:50;101265.75;;;22.50;48.28
75936;BME280;64614;32.062;34.834;2023-02-25T03:28:27;101272.31;;;22.49;48.88
75936;BME280;64614;32.062;34.834;2023-02-25T03:31:15;101266.84;;;22.49;48.77
75936;BME280;64614;32.062;34.834;2023-02-25T03:33:48;101271.50;;;22.49;48.45
75936;BME280;64614;32.062;34.834;2023-02-25T03:36:33;101267.97;;;22.48;48.71
75936;BME280;64614;32.062;34.834;2023-02-25T03:39:16;101266.31;;;22.47;48.44
75936;BME280;64614;32.062;34.834;2023-02-25T03:41:46;101271.81;;;22.47;48.63
75936;BME280;64614;32.062;34.834;2023-02-25T03:44:30;101270.16;;;22.46;48.78
75936;BME280;64614;32.062;34.834;2023-02-25T03:46:59;101271.00;;;22.47;48.64
75936;BME280;64614;32.062;34.834;2023-02-25T03:49:35;101264.69;;;22.46;48.53
75936;BME280;64614;32.062;34.834;2023-02-25T03:52:05;101268.53;;;22.45;48.58
75936;BME280;64614;32.062;34.834;2023-02-25T03:54:37;101279.50;;;22.45;48.55
75936;BME280;64614;32.062;34.834;2023-02-25T03:57:06;101274.00;;;22.45;48.92
75936;BME280;64614;32.062;34.834;2023-02-25T03:59:31;101273.22;;;22.45;48.50
75936;BME280;64614;32.062;34.834;2023-02-25T04:01:59;101273.53;;;22.43;48.52
75936;BME280;64614;32.062;34.834;2023-02-25T04:04:26;101277.84;;;22.44;49.14
75936;BME280;64614;32.062;34.834;2023-02-25T04:06:52;101287.19;;;22.43;48.81
75936;BME280;64614;32.062;34.834;2023-02-25T04:09:19;101287.19;;;22.43;49.05
75936;BME280;64614;32.062;34.834;2023-02-25T04:11:45;101286.38;;;22.43;48.74
75936;BME280;64614;32.062;34.834;2023-02-25T04:14:10;101288.31;;;22.42;48.83
75936;BME280;64614;32.062;34.834;2023-02-25T04:16:38;101291.03;;;22.42;49.22
75936;BME280;64614;32.062;34.834;2023-02-25T04:19:04;101286.69;;;22.41;48.75
75936;BME280;64614;32.062;34.834;2023-02-25T04:21:31;101287.78;;;22.40;49.16
75936;BME280;64614;32.062;34.834;2023-02-25T04:23:57;101290.22;;;22.42;49.16
75936;BME280;64614;32.062;34.834;2023-02-25T04:26:26;101293.25;;;22.40;49.10
75936;BME280;64614;32.062;34.834;2023-02-25T04:28:52;101294.34;;;22.39;48.77
75936;BME280;64614;32.062;34.834;2023-02-25T04:31:18;101289.16;;;22.37;49.12
75936;BME280;64614;32.062;34.834;2023-02-25T04:33:44;101298.16;;;22.38;48.75
75936;BME280;64614;32.062;34.834;2023-02-25T04:36:32;101294.91;;;22.36;48.78
75936;BME280;64614;32.062;34.834;2023-02-25T04:38:59;101298.47;;;22.36;49.07
75936;BME280;64614;32.062;34.834;2023-02-25T04:41:30;101305.59;;;22.37;49.41
75936;BME280;64614;32.062;34.834;2023-02-25T04:43:58;101300.91;;;22.38;49.50
75936;BME280;64614;32.062;34.834;2023-02-25T04:46:24;101311.84;;;22.38;49.21
75936;BME280;64614;32.062;34.834;2023-02-25T04:48:51;101309.41;;;22.36;49.21
75936;BME280;64614;32.062;34.834;2023-02-25T04:51:17;101314.06;;;22.36;49.52
75936;BME280;64614;32.062;34.834;2023-02-25T04:58:34;101314.06;;;22.36;49.76
75936;BME280;64614;32.062;34.834;2023-02-25T05:01:02;101327.75;;;22.36;49.64
75936;BME280;64614;32.062;34.834;2023-02-25T05:03:28;101335.97;;;22.36;49.94
75936;BME280;64614;32.062;34.834;2023-02-25T05:05:54;101334.84;;;22.37;50.03
75936;BME280;64614;32.062;34.834;2023-02-25T05:08:20;101339.53;;;22.36;49.83
75936;BME280;64614;32.062;34.834;2023-02-25T05:10:46;101331.31;;;22.36;49.87
75936;BME280;64614;32.062;34.834;2023-02-25T05:13:13;101340.31;;;22.37;49.92
75936;BME280;64614;32.062;34.834;2023-02-25T05:15:39;101334.84;;;22.37;49.78
75936;BME280;64614;32.062;34.834;2023-02-25T05:18:05;101344.47;;;22.34;49.93
75936;BME280;64614;32.062;34.834;2023-02-25T05:20:30;101344.47;;;22.34;49.86
75936;BME280;64614;32.062;34.834;2023-02-25T05:22:56;101335.72;;;22.32;49.79
75936;BME280;64614;32.062;34.834;2023-02-25T05:34:44;101350.53;;;22.31;50.00
75936;BME280;64614;32.062;34.834;2023-02-25T05:50:09;101370.53;;;22.27;48.83
75936;BME280;64614;32.062;34.834;2023-02-25T05:52:36;101374.41;;;22.26;48.65
75936;BME280;64614;32.062;34.834;2023-02-25T05:57:38;101374.34;;;22.31;48.59
75936;BME280;64614;32.062;34.834;2023-02-25T06:00:04;101370.78;;;22.30;48.71
75936;BME280;64614;32.062;34.834;2023-02-25T06:44:55;101389.13;;;22.30;47.04
75936;BME280;64614;32.062;34.834;2023-02-25T06:50:16;101396.22;;;22.31;47.38
75936;BME280;64614;32.062;34.834;2023-02-25T07:16:23;101407.03;;;22.46;47.44
75936;BME280;64614;32.062;34.834;2023-02-25T07:18:49;101404.81;;;22.48;47.20
75936;BME280;64614;32.062;34.834;2023-02-25T07:21:15;101406.97;;;22.51;47.70
75936;BME280;64614;32.062;34.834;2023-02-25T07:28:56;101401.41;;;22.57;47.19
75936;BME280;64614;32.062;34.834;2023-02-25T07:35:00;101392.09;;;22.58;47.68
75936;BME280;64614;32.062;34.834;2023-02-25T07:50:36;101391.44;;;22.66;47.74
75936;BME280;64614;32.062;34.834;2023-02-25T07:53:01;101395.81;;;22.67;47.42
75936;BME280;64614;32.062;34.834;2023-02-25T07:58:44;101391.44;;;22.66;47.22
75936;BME280;64614;32.062;34.834;2023-02-25T08:03:38;101390.88;;;22.69;47.59
75936;BME280;64614;32.062;34.834;2023-02-25T08:06:04;101389.72;;;22.70;47.32
75936;BME280;64614;32.062;34.834;2023-02-25T08:11:09;101383.22;;;22.66;47.56
75936;BME280;64614;32.062;34.834;2023-02-25T08:13:36;101392.19;;;22.72;47.69
75936;BME280;64614;32.062;34.834;2023-02-25T08:16:04;101387.53;;;22.72;47.66
75936;BME280;64614;32.062;34.834;2023-02-25T08:18:30;101379.31;;;22.72;47.50
75936;BME280;64614;32.062;34.834;2023-02-25T08:20:55;101376.88;;;22.71;47.68
75936;BME280;64614;32.062;34.834;2023-02-25T08:25:58;101371.09;;;22.72;47.53
75936;BME280;64614;32.062;34.834;2023-02-25T08:28:26;101373.31;;;22.70;47.52
75936;BME280;64614;32.062;34.834;2023-02-25T08:30:53;101364.22;;;22.75;47.21
75936;BME280;64614;32.062;34.834;2023-02-25T08:36:27;101377.09;;;22.74;47.25
75936;BME280;64614;32.062;34.834;2023-02-25T08:41:28;101370.28;;;22.72;47.58
75936;BME280;64614;32.062;34.834;2023-02-25T08:43:56;101369.19;;;22.73;47.26
75936;BME280;64614;32.062;34.834;2023-02-25T08:46:24;101365.63;;;22.72;47.14
75936;BME280;64614;32.062;34.834;2023-02-25T08:48:52;101365.63;;;22.72;47.61
75936;BME280;64614;32.062;34.834;2023-02-25T09:01:42;101360.97;;;22.73;47.45
75936;BME280;64614;32.062;34.834;2023-02-25T09:04:21;101362.34;;;22.70;47.24
75936;BME280;64614;32.062;34.834;2023-02-25T09:06:48;101364.81;;;22.72;47.27
75936;BME280;64614;32.062;34.834;2023-02-25T09:09:18;101363.19;;;22.71;47.57
75936;BME280;64614;32.062;34.834;2023-02-25T09:11:45;101358.50;;;22.71;47.63
75936;BME280;64614;32.062;34.834;2023-02-25T09:19:39;101345.44;;;22.68;47.32
75936;BME280;64614;32.062;34.834;2023-02-25T09:24:40;101350.38;;;22.66;47.22
75936;BME280;64614;32.062;34.834;2023-02-25T09:27:06;101341.06;;;22.67;47.55
75936;BME280;64614;32.062;34.834;2023-02-25T10:35:38;101270.69;;;22.67;47.50
75936;BME280;64614;32.062;34.834;2023-02-25T10:38:05;101258.41;;;22.65;47.52
75936;BME280;64614;32.062;34.834;2023-02-25T10:40:31;101260.03;;;22.66;47.10
75936;BME280;64614;32.062;34.834;2023-02-25T10:51:01;101254.25;;;22.67;47.18
75936;BME280;64614;32.062;34.834;2023-02-25T10:53:30;101253.44;;;22.67;47.36
75936;BME280;64614;32.062;34.834;2023-02-25T11:53:03;101240.56;;;22.87;47.60
75936;BME280;64614;32.062;34.834;2023-02-25T12:01:48;101229.81;;;22.90;47.64
75936;BME280;64614;32.062;34.834;2023-02-25T12:21:06;101226.75;;;22.92;47.20
75936;BME280;64614;32.062;34.834;2023-02-25T12:34:33;101223.44;;;22.95;47.54
75936;BME280;64614;32.062;34.834;2023-02-25T13:04:58;101225.97;;;23.05;47.87
75936;BME280;64614;32.062;34.834;2023-02-25T13:07:47;101224.84;;;23.06;47.84
75936;BME280;64614;32.062;34.834;2023-02-25T13:10:40;101223.75;;;23.07;47.38
75936;BME280;64614;32.062;34.834;2023-02-25T13:16:15;101229.22;;;23.07;47.39
75936;BME280;64614;32.062;34.834;2023-02-25T14:04:27;101229.63;;;23.14;47.62
75936;BME280;64614;32.062;34.834;2023-02-25T14:19:05;101231.16;;;23.07;47.60
75936;BME280;64614;32.062;34.834;2023-02-25T14:24:48;101237.44;;;23.07;47.20
75936;BME280;64614;32.062;34.834;2023-02-25T14:27:26;101236.34;;;23.08;47.29
75936;BME280;64614;32.062;34.834;2023-02-25T14:36:18;101247.28;;;23.08;47.19
75936;BME280;64614;32.062;34.834;2023-02-25T14:44:16;101261.19;;;23.12;47.25
75936;BME280;64614;32.062;34.834;2023-02-25T14:46:53;101260.69;;;23.10;47.18
75936;BME280;64614;32.062;34.834;2023-02-25T14:49:29;101275.22;;;23.10;47.39
75936;BME280;64614;32.062;34.834;2023-02-25T14:52:24;101265.03;;;23.11;47.22
75936;BME280;64614;32.062;34.834;2023-02-25T15:01:10;101248.31;;;23.12;47.27
75936;BME280;64614;32.062;34.834;2023-02-25T15:15:14;101268.41;;;23.08;46.80
75936;BME280;64614;32.062;34.834;2023-02-25T15:18:21;101282.91;;;23.08;47.20
75936;BME280;64614;32.062;34.834;2023-02-25T15:20:49;101275.00;;;23.07;46.91
75936;BME280;64614;32.062;34.834;2023-02-25T15:23:17;101286.22;;;23.05;47.14
75936;BME280;64614;32.062;34.834;2023-02-25T15:31:32;101292.63;;;23.00;47.05
75936;BME280;64614;32.062;34.834;2023-02-25T15:34:27;101292.91;;;22.99;46.99
75936;BME280;64614;32.062;34.834;2023-02-25T15:37:38;101293.22;;;22.97;46.74
75936;BME280;64614;32.062;34.834;2023-02-25T15:42:49;101298.50;;;22.94;47.03
75936;BME280;64614;32.062;34.834;2023-02-25T15:48:38;101308.41;;;22.90;47.29
75936;BME280;64614;32.062;34.834;2023-02-25T15:51:10;101310.13;;;22.85;46.92
75936;BME280;64614;32.062;34.834;2023-02-25T15:53:42;101319.13;;;22.86;46.81
75936;BME280;64614;32.062;34.834;2023-02-25T15:59:11;101330.41;;;22.84;47.24
75936;BME280;64614;32.062;34.834;2023-02-25T16:01:59;101338.09;;;22.82;46.76
75936;BME280;64614;32.062;34.834;2023-02-25T16:06:56;101337.88;;;22.79;47.06
75936;BME280;64614;32.062;34.834;2023-02-25T16:09:22;101329.97;;;22.77;47.03
75936;BME280;64614;32.062;34.834;2023-02-25T16:11:54;101338.47;;;22.76;47.18
75936;BME280;64614;32.062;34.834;2023-02-25T16:14:32;101337.97;;;22.74;47.01
75936;BME280;64614;32.062;34.834;2023-02-25T16:17:04;101333.59;;;22.73;47.06
75936;BME280;64614;32.062;34.834;2023-02-25T16:19:32;101342.09;;;22.71;46.68
75936;BME280;64614;32.062;34.834;2023-02-25T16:41:52;101377.75;;;22.66;47.71
75936;BME280;64614;32.062;34.834;2023-02-25T17:03:40;101391.75;;;22.64;47.52
75936;BME280;64614;32.062;34.834;2023-02-25T17:18:28;101420.22;;;22.63;47.66
75936;BME280;64614;32.062;34.834;2023-02-25T17:42:35;101444.88;;;22.63;47.47
75936;BME280;64614;32.062;34.834;2023-02-25T17:45:04;101445.16;;;22.62;48.01
75936;BME280;64614;32.062;34.834;2023-02-25T17:47:34;101449.50;;;22.63;47.79
75936;BME280;64614;32.062;34.834;2023-02-25T17:52:57;101445.16;;;22.62;48.02
75936;BME280;64614;32.062;34.834;2023-02-25T17:58:00;101438.34;;;22.59;48.00
75936;BME280;64614;32.062;34.834;2023-02-25T18:00:33;101439.97;;;22.60;47.63
75936;BME280;64614;32.062;34.834;2023-02-25T18:03:13;101443.81;;;22.59;48.06
75936;BME280;64614;32.062;34.834;2023-02-25T18:08:18;101444.13;;;22.58;48.04
75936;BME280;64614;32.062;34.834;2023-02-25T18:10:47;101445.75;;;22.59;47.68
75936;BME280;64614;32.062;34.834;2023-02-25T18:13:19;101443.00;;;22.59;47.90
75936;BME280;64614;32.062;34.834;2023-02-25T18:15:46;101446.84;;;22.58;48.06
75936;BME280;64614;32.062;34.834;2023-02-25T18:18:20;101443.00;;;22.59;47.99
75936;BME280;64614;32.062;34.834;2023-02-25T18:20:47;101448.75;;;22.57;47.89
75936;BME280;64614;32.062;34.834;2023-02-25T18:25:47;101447.97;;;22.57;47.91
75936;BME280;64614;32.062;34.834;2023-02-25T18:28:20;101449.06;;;22.56;47.77
75936;BME280;64614;32.062;34.834;2023-02-25T18:30:47;101447.16;;;22.56;47.73
75936;BME280;64614;32.062;34.834;2023-02-25T18:33:14;101442.47;;;22.57;47.82
75936;BME280;64614;32.062;34.834;2023-02-25T18:35:43;101449.06;;;22.56;47.62
75936;BME280;64614;32.062;34.834;2023-02-25T18:38:22;101454.53;;;22.56;48.06
75936;BME280;64614;32.062;34.834;2023-02-25T18:40:50;101451.00;;;22.55;47.86
75936;BME280;64614;32.062;34.834;2023-02-25T18:43:22;101452.91;;;22.54;47.62
75936;BME280;64614;32.062;34.834;2023-02-25T18:45:48;101457.56;;;22.54;47.63
75936;BME280;64614;32.062;34.834;2023-02-25T18:48:14;101461.94;;;22.55;47.51
75936;BME280;64614;32.062;34.834;2023-02-25T18:50:41;101457.56;;;22.54;47.91
75936;BME280;64614;32.062;34.834;2023-02-25T18:53:21;101456.75;;;22.53;48.03
75936;BME280;64614;32.062;34.834;2023-02-25T18:55:52;101458.38;;;22.54;47.93
75936;BME280;64614;32.062;34.834;2023-02-25T18:58:19;101462.22;;;22.53;48.00
75936;BME280;64614;32.062;34.834;2023-02-25T19:00:50;101456.75;;;22.53;47.96
75936;BME280;64614;32.062;34.834;2023-02-25T19:03:42;101464.69;;;22.55;47.82
75936;BME280;64614;32.062;34.834;2023-02-25T19:06:10;101461.41;;;22.53;47.79
75936;BME280;64614;32.062;34.834;2023-02-25T19:08:38;101457.84;;;22.52;48.05
75936;BME280;64614;32.062;34.834;2023-02-25T19:11:17;101461.72;;;22.51;47.66
75936;BME280;64614;32.062;34.834;2023-02-25T19:13:43;101468.78;;;22.52;47.95
75936;BME280;64614;32.062;34.834;2023-02-25T19:16:31;101467.75;;;22.48;47.53
75936;BME280;64614;32.062;34.834;2023-02-25T19:21:38;101469.09;;;22.51;47.64
75936;BME280;64614;32.062;34.834;2023-02-25T19:24:07;101469.94;;;22.51;47.77
75936;BME280;64614;32.062;34.834;2023-02-25T19:35:14;101471.59;;;22.47;47.82
75936;BME280;64614;32.062;34.834;2023-02-25T19:37:40;101483.09;;;22.49;48.06
75936;BME280;64614;32.062;34.834;2023-02-25T19:40:09;101469.69;;;22.48;47.84
75936;BME280;64614;32.062;34.834;2023-02-25T19:42:36;101474.34;;;22.47;48.07
75936;BME280;64614;32.062;34.834;2023-02-25T19:45:04;101484.50;;;22.47;48.01
75936;BME280;64614;32.062;34.834;2023-02-25T19:47:30;101486.38;;;22.46;48.16
75936;BME280;64614;32.062;34.834;2023-02-25T19:49:57;101489.13;;;22.46;48.14
75936;BME280;64614;32.062;34.834;2023-02-25T19:52:23;101490.75;;;22.47;47.84
75936;BME280;64614;32.062;34.834;2023-02-25T20:00:00;101492.16;;;22.45;47.75
75936;BME280;64614;32.062;34.834;2023-02-25T20:02:27;101492.16;;;22.45;48.21
75936;BME280;64614;32.062;34.834;2023-02-25T20:04:53;101486.69;;;22.45;47.95
75936;BME280;64614;32.062;34.834;2023-02-25T20:13:07;101483.44;;;22.43;48.15
75936;BME280;64614;32.062;34.834;2023-02-25T20:15:36;101489.72;;;22.43;48.12
75936;BME280;64614;32.062;34.834;2023-02-25T20:18:02;101491.63;;;22.43;48.25
75936;BME280;64614;32.062;34.834;2023-02-25T20:20:29;101495.19;;;22.43;47.70
75936;BME280;64614;32.062;34.834;2023-02-25T20:22:55;101491.94;;;22.41;47.92
75936;BME280;64614;32.062;34.834;2023-02-25T20:25:23;101484.53;;;22.42;48.03
75936;BME280;64614;32.062;34.834;2023-02-25T20:35:36;101478.25;;;22.41;47.92
75936;BME280;64614;32.062;34.834;2023-02-25T20:38:39;101475.50;;;22.41;47.74
75936;BME280;64614;32.062;34.834;2023-02-25T20:52:49;101461.28;;;22.39;48.14
75936;BME280;64614;32.062;34.834;2023-02-25T20:55:16;101459.63;;;22.38;48.14
75936;BME280;64614;32.062;34.834;2023-02-25T21:00:21;101448.69;;;22.38;48.05
75936;BME280;64614;32.062;34.834;2023-02-25T21:02:50;101453.34;;;22.37;48.12
75936;BME280;64614;32.062;34.834;2023-02-25T21:05:17;101451.41;;;22.38;47.81
75936;BME280;64614;32.062;34.834;2023-02-25T21:07:46;101447.88;;;22.37;47.79
75936;BME280;64614;32.062;34.834;2023-02-25T21:12:47;101445.94;;;22.38;48.21
75936;BME280;64614;32.062;34.834;2023-02-25T21:15:13;101434.47;;;22.36;47.82
75936;BME280;64614;32.062;34.834;2023-02-25T21:22:52;101434.47;;;22.36;48.05
75936;BME280;64614;32.062;34.834;2023-02-25T21:25:18;101430.09;;;22.35;48.25
75936;BME280;64614;32.062;34.834;2023-02-25T21:30:23;101430.09;;;22.35;48.15
75936;BME280;64614;32.062;34.834;2023-02-25T21:32:49;101434.78;;;22.34;48.26
75936;BME280;64614;32.062;34.834;2023-02-25T21:37:52;101428.50;;;22.34;48.36
75936;BME280;64614;32.062;34.834;2023-02-25T21:40:21;101443.28;;;22.33;47.86
75936;BME280;64614;32.062;34.834;2023-02-25T21:42:47;101444.09;;;22.33;47.95
75936;BME280;64614;32.062;34.834;2023-02-25T21:45:15;101441.66;;;22.32;48.30
75936;BME280;64614;32.062;34.834;2023-02-25T21:47:42;101439.72;;;22.32;47.85
75936;BME280;64614;32.062;34.834;2023-02-25T21:50:08;101440.53;;;22.33;48.22
75936;BME280;64614;32.062;34.834;2023-02-25T21:52:37;101433.44;;;22.32;48.54
75936;BME280;64614;32.062;34.834;2023-02-25T21:55:04;101436.19;;;22.32;48.35
75936;BME280;64614;32.062;34.834;2023-02-25T21:57:31;101433.44;;;22.32;48.38
75936;BME280;64614;32.062;34.834;2023-02-25T21:59:57;101437.28;;;22.31;48.01
75936;BME280;64614;32.062;34.834;2023-02-25T22:02:24;101429.06;;;22.31;47.92
75936;BME280;64614;32.062;34.834;2023-02-25T22:04:55;101432.38;;;22.28;48.38
75936;BME280;64614;32.062;34.834;2023-02-25T22:07:21;101429.06;;;22.31;48.04
75936;BME280;64614;32.062;34.834;2023-02-25T22:09:47;101429.06;;;22.31;48.17
75936;BME280;64614;32.062;34.834;2023-02-25T22:17:23;101434.00;;;22.29;48.29
75936;BME280;64614;32.062;34.834;2023-02-25T22:25:02;101439.25;;;22.25;48.46
75936;BME280;64614;32.062;34.834;2023-02-25T22:27:47;101434.63;;;22.26;48.29
75936;BME280;64614;32.062;34.834;2023-02-25T22:38:10;101449.84;;;22.32;48.27
75936;BME280;64614;32.062;34.834;2023-02-25T22:40:37;101450.97;;;22.31;48.20
75936;BME280;64614;32.062;34.834;2023-02-25T22:43:06;101452.28;;;22.33;48.71
75936;BME280;64614;32.062;34.834;2023-02-25T22:45:32;101455.88;;;22.34;48.58
75936;BME280;64614;32.062;34.834;2023-02-25T22:47:58;101455.88;;;22.34;48.54
75936;BME280;64614;32.062;34.834;2023-02-25T22:50:25;101458.00;;;22.37;48.42
75936;BME280;64614;32.062;34.834;2023-02-25T22:52:53;101455.25;;;22.37;48.82
75936;BME280;64614;32.062;34.834;2023-02-25T22:55:19;101456.09;;;22.37;48.57
75936;BME280;64614;32.062;34.834;2023-02-25T22:57:47;101451.41;;;22.38;49.10
75936;BME280;64614;32.062;34.834;2023-02-25T23:00:13;101457.72;;;22.38;48.81
75936;BME280;64614;32.062;34.834;2023-02-25T23:02:44;101454.16;;;22.38;49.16
75936;BME280;64614;32.062;34.834;2023-02-25T23:05:09;101451.97;;;22.40;48.50
75936;BME280;64614;32.062;34.834;2023-02-25T23:07:37;101451.41;;;22.38;49.08
75936;BME280;64614;32.062;34.834;2023-02-25T23:10:07;101440.78;;;22.36;49.15
75936;BME280;64614;32.062;34.834;2023-02-25T23:12:33;101437.22;;;22.36;48.96
75936;BME280;64614;32.062;34.834;2023-02-25T23:14:59;101447.88;;;22.37;49.38
75936;BME280;64614;32.062;34.834;2023-02-25T23:17:25;101445.16;;;22.37;49.02
75936;BME280;64614;32.062;34.834;2023-02-25T23:19:52;101437.22;;;22.36;48.83
75936;BME280;64614;32.062;34.834;2023-02-25T23:22:23;101442.97;;;22.34;49.19
75936;BME280;64614;32.062;34.834;2023-02-25T23:24:51;101440.25;;;22.34;49.05
75936;BME280;64614;32.062;34.834;2023-02-25T23:27:17;101441.34;;;22.33;48.80
75936;BME280;64614;32.062;34.834;2023-02-25T23:29:42;101435.00;;;22.38;49.11
75936;BME280;64614;32.062;34.834;2023-02-25T23:34:33;101440.53;;;22.33;49.32
75936;BME280;64614;32.062;34.834;2023-02-25T23:37:00;101433.44;;;22.32;48.98
75936;BME280;64614;32.062;34.834;2023-02-25T23:39:25;101429.88;;;22.31;48.89
75936;BME280;64614;32.062;34.834;2023-02-25T23:41:52;101428.25;;;22.30;48.90
75936;BME280;64614;32.062;34.834;2023-02-25T23:44:18;101427.44;;;22.30;48.82
75936;BME280;64614;32.062;34.834;2023-02-25T23:46:44;101414.06;;;22.28;49.12
75936;BME280;64614;32.062;34.834;2023-02-25T23:49:11;101418.44;;;22.29;49.12
75936;BME280;64614;32.062;34.834;2023-02-25T23:51:40;101416.78;;;22.28;49.01
75936;BME280;64614;32.062;34.834;2023-02-25T23:54:06;101416.50;;;22.30;48.63